Time;durP1;ratioP1;P1;durP2;ratioP2;P2;SDS_P1;SDS_P2;PMS_P1;PMS_P2;Temp;Humidity;BMP_temperature;BMP_pressure;BME280_temperature;BME280_humidity;BME280_pressure;Samples;Min_cycle;Max_cycle;Signal;HPM_P1;HPM_P2
2023/01/03 00:01:05;;;;;;;3.58;1.80;;;;;;;9.71;73.19;100989.44;1092327;39;21010;-80
2023/01/03 00:02:09;;;;;;;4.35;2.00;;;;;;;9.66;73.47;100999.59;1087763;54;20031;-80
2023/01/03 00:03:15;;;;;;;3.80;2.15;;;;;;;9.63;73.58;100982.00;1087730;54;20065;-80
2023/01/03 00:04:20;;;;;;;3.65;1.95;;;;;;;9.61;73.58;100993.78;1087664;54;20575;-79
2023/01/03 00:05:23;;;;;;;4.25;1.80;;;;;;;9.66;73.48;101000.47;1087760;54;20604;-80
2023/01/03 00:06:29;;;;;;;3.85;1.70;;;;;;;9.70;73.26;100995.75;1087703;54;20037;-82
2023/01/03 00:07:36;;;;;;;3.60;1.88;;;;;;;9.75;73.38;100996.22;1087746;54;20066;-81
2023/01/03 00:08:41;;;;;;;4.25;2.45;;;;;;;9.80;73.13;100995.88;1087817;54;20463;-79
2023/01/03 00:09:48;;;;;;;4.22;1.85;;;;;;;9.72;73.36;100995.63;1087837;54;20061;-80
2023/01/03 00:10:49;;;;;;;4.55;1.95;;;;;;;9.74;73.26;100991.03;1087876;54;20030;-81
2023/01/03 00:13:12;;;;;;;3.30;1.60;;;;;;;9.68;73.36;101005.69;1087771;54;20034;-79
2023/01/03 00:14:16;;;;;;;4.47;1.77;;;;;;;9.69;73.46;101007.38;1087831;54;20035;-79
2023/01/03 00:15:20;;;;;;;3.13;1.67;;;;;;;9.68;73.41;101011.84;1087863;54;20232;-79
2023/01/03 00:16:22;;;;;;;4.63;1.63;;;;;;;9.62;73.52;101011.50;1087888;54;20034;-79
2023/01/03 00:17:26;;;;;;;3.50;1.90;;;;;;;9.59;73.83;101019.72;1087843;54;20037;-79
2023/01/03 00:18:29;;;;;;;3.80;1.95;;;;;;;9.70;73.29;101018.91;1087686;54;20065;-78
2023/01/03 00:19:35;;;;;;;3.42;1.83;;;;;;;9.62;73.63;101017.66;1087754;54;20040;-79
2023/01/03 00:20:37;;;;;;;3.50;1.75;;;;;;;9.55;73.86;101019.09;1087716;54;20068;-79
2023/01/03 00:21:42;;;;;;;3.67;1.88;;;;;;;9.60;73.81;101021.44;1087775;54;20054;-79
2023/01/03 00:22:46;;;;;;;3.50;1.77;;;;;;;9.66;73.48;101013.81;1087747;54;20050;-79
2023/01/03 00:23:51;;;;;;;4.30;1.83;;;;;;;9.57;73.62;101024.31;1087698;54;20046;-80
2023/01/03 00:24:57;;;;;;;7.07;2.20;;;;;;;9.58;73.71;101016.22;1087919;54;20030;-80
2023/01/03 00:26:06;;;;;;;5.32;2.00;;;;;;;9.75;73.14;101014.09;1087779;54;20041;-79
2023/01/03 00:27:11;;;;;;;5.75;1.90;;;;;;;9.59;73.42;101011.72;1087798;54;20030;-81
2023/01/03 00:28:12;;;;;;;4.95;2.10;;;;;;;9.54;73.80;101013.88;1087838;54;20046;-80
2023/01/03 00:29:17;;;;;;;4.55;2.00;;;;;;;9.49;73.75;101011.56;1087710;54;20041;-79
2023/01/03 00:30:19;;;;;;;3.47;1.95;;;;;;;9.42;74.28;101004.94;1087872;54;20042;-80
2023/01/03 00:31:23;;;;;;;3.72;2.00;;;;;;;9.40;74.27;101005.06;1087823;54;20035;-82
2023/01/03 00:32:25;;;;;;;3.55;1.80;;;;;;;9.54;73.75;101004.03;1087737;54;20060;-81
2023/01/03 00:33:29;;;;;;;3.80;1.80;;;;;;;9.41;74.07;101004.13;1087751;54;20042;-80
2023/01/03 00:34:31;;;;;;;4.10;2.17;;;;;;;9.41;74.22;101009.44;1087771;54;20050;-80
2023/01/03 00:35:37;;;;;;;4.15;2.30;;;;;;;9.38;74.32;101008.84;1087740;54;20042;-79
2023/01/03 00:36:38;;;;;;;3.88;2.00;;;;;;;9.36;74.22;101014.25;1088114;46;20050;-80
2023/01/03 00:37:44;;;;;;;5.97;2.08;;;;;;;9.38;74.17;101009.66;1087940;54;20027;-82
2023/01/03 00:38:45;;;;;;;4.85;2.55;;;;;;;9.25;74.53;101011.56;1087934;54;20030;-82
2023/01/03 00:39:52;;;;;;;4.28;2.45;;;;;;;9.31;74.41;101011.09;1087866;54;20026;-81
2023/01/03 00:41:03;;;;;;;4.68;2.22;;;;;;;9.31;74.53;101013.75;1087908;54;20034;-80
2023/01/03 00:42:07;;;;;;;3.40;1.70;;;;;;;9.29;74.41;101008.56;1087956;54;20057;-81
2023/01/03 00:44:28;;;;;;;4.18;1.98;;;;;;;9.27;74.61;101017.59;1088024;54;20062;-81
2023/01/03 00:45:30;;;;;;;3.35;1.83;;;;;;;9.27;74.49;101012.28;1087988;54;20034;-83
2023/01/03 00:46:34;;;;;;;3.35;1.77;;;;;;;9.20;74.78;101022.56;1088031;54;20034;-83
2023/01/03 00:47:36;;;;;;;4.32;1.75;;;;;;;9.28;74.63;101025.53;1088015;54;20023;-82
2023/01/03 00:48:40;;;;;;;4.30;1.90;;;;;;;9.40;73.92;101013.09;1088024;54;20111;-81
2023/01/03 00:49:45;;;;;;;3.40;1.80;;;;;;;9.52;73.72;101022.00;1088049;54;20776;-82
2023/01/03 00:50:47;;;;;;;4.93;1.85;;;;;;;9.40;73.81;101023.75;1087898;54;20030;-82
2023/01/03 00:51:52;;;;;;;4.65;1.83;;;;;;;9.48;73.75;101017.88;1088088;54;20046;-81
2023/01/03 00:52:54;;;;;;;3.50;1.58;;;;;;;9.45;73.63;101018.91;1087954;54;20042;-80
2023/01/03 00:54:00;;;;;;;3.95;1.75;;;;;;;9.38;74.11;101025.69;1087913;54;20044;-81
2023/01/03 00:55:02;;;;;;;3.40;1.92;;;;;;;9.26;74.46;101029.28;1087788;54;20069;-80
2023/01/03 00:56:11;;;;;;;4.40;1.80;;;;;;;9.23;74.53;101037.50;1088654;39;20921;-81
2023/01/03 00:57:12;;;;;;;3.70;1.80;;;;;;;9.33;74.23;101033.19;1087933;54;20034;-81
2023/01/03 00:58:18;;;;;;;4.03;2.00;;;;;;;9.25;74.47;101024.91;1087525;54;20057;-80
2023/01/03 00:59:20;;;;;;;3.85;1.80;;;;;;;9.27;74.30;101036.28;1087659;54;20065;-80
2023/01/03 01:00:24;;;;;;;4.13;1.90;;;;;;;9.26;74.32;101030.09;1087761;54;20618;-80
2023/01/03 01:01:28;;;;;;;3.80;2.05;;;;;;;9.28;74.13;101035.31;1087665;54;20065;-81
2023/01/03 01:02:32;;;;;;;3.60;2.00;;;;;;;9.34;74.01;101027.72;1087770;54;20041;-79
2023/01/03 01:03:36;;;;;;;3.70;2.03;;;;;;;9.26;74.31;101031.94;1088074;54;20039;-81
2023/01/03 01:04:40;;;;;;;3.90;1.90;;;;;;;9.21;74.34;101034.91;1088184;54;20034;-82
2023/01/03 01:05:42;;;;;;;4.65;2.05;;;;;;;9.19;74.60;101034.19;1088103;54;20651;-82
2023/01/03 01:06:48;;;;;;;4.18;2.05;;;;;;;9.13;74.90;101035.50;1088067;54;20057;-82
2023/01/03 01:07:50;;;;;;;3.60;2.10;;;;;;;9.15;74.87;101036.25;1088210;54;20110;-81
2023/01/03 01:08:57;;;;;;;3.70;2.00;;;;;;;9.34;74.27;101029.56;1088200;54;20074;-82
2023/01/03 01:09:59;;;;;;;3.80;2.00;;;;;;;9.20;74.46;101031.41;1088117;54;20038;-82
2023/01/03 01:11:17;;;;;;;4.82;2.05;;;;;;;9.14;74.79;101026.53;1088306;54;20042;-81
2023/01/03 01:12:19;;;;;;;4.90;2.20;;;;;;;9.25;74.62;101024.91;1088372;54;20019;-81
2023/01/03 01:13:33;;;;;;;4.18;2.15;;;;;;;9.32;74.25;101031.47;1088294;54;20030;-82
2023/01/03 01:14:35;;;;;;;4.75;2.00;;;;;;;9.29;74.44;101024.56;1089982;47;20022;-80
2023/01/03 01:15:50;;;;;;;4.15;1.85;;;;;;;9.29;74.29;101026.34;1088335;54;20023;-82
2023/01/03 01:16:57;;;;;;;4.45;2.03;;;;;;;9.13;74.91;101035.50;1088174;54;20034;-81
2023/01/03 01:17:59;;;;;;;4.25;2.00;;;;;;;9.26;74.65;101032.78;1088555;39;20680;-81
2023/01/03 01:19:03;;;;;;;4.38;2.20;;;;;;;9.18;74.81;101036.00;1088124;54;20030;-81
2023/01/03 01:20:07;;;;;;;4.90;2.35;;;;;;;9.20;74.76;101030.56;1088143;54;20015;-83
2023/01/03 01:21:13;;;;;;;4.10;1.80;;;;;;;9.16;74.69;101032.59;1088191;54;20041;-80
2023/01/03 01:22:15;;;;;;;5.35;2.25;;;;;;;9.18;74.50;101032.50;1088046;54;20038;-81
2023/01/03 01:23:19;;;;;;;4.38;1.98;;;;;;;9.19;74.68;101032.38;1088044;54;20038;-82
2023/01/03 01:24:25;;;;;;;4.15;2.28;;;;;;;9.24;74.54;101017.84;1087882;54;20019;-82
2023/01/03 01:25:27;;;;;;;3.90;2.05;;;;;;;9.21;74.32;101027.78;1087829;54;20024;-82
2023/01/03 01:26:36;;;;;;;4.20;2.35;;;;;;;9.12;74.75;101031.13;1088097;54;20034;-81
2023/01/03 01:27:37;;;;;;;3.53;1.80;;;;;;;9.17;74.62;101031.63;1088029;54;20023;-81
2023/01/03 01:28:43;;;;;;;4.00;1.80;;;;;;;9.15;74.82;101038.03;1088107;54;20018;-82
2023/01/03 01:29:47;;;;;;;4.43;2.00;;;;;;;9.17;74.47;101036.94;1087947;54;20057;-82
2023/01/03 01:30:49;;;;;;;3.95;2.22;;;;;;;9.17;74.60;101042.28;1088042;54;20049;-81
2023/01/03 01:31:54;;;;;;;4.03;2.20;;;;;;;9.11;74.63;101034.75;1091926;47;20034;-82
2023/01/03 01:32:55;;;;;;;4.07;2.17;;;;;;;9.23;74.31;101046.34;1088014;54;20019;-81
2023/01/03 01:34:00;;;;;;;4.47;2.28;;;;;;;9.17;74.37;101036.94;1087964;54;20027;-82
2023/01/03 01:35:02;;;;;;;3.95;2.10;;;;;;;9.10;74.80;101041.03;1087973;54;20030;-81
2023/01/03 01:36:10;;;;;;;4.40;2.35;;;;;;;9.10;74.83;101041.03;1087653;54;20034;-81
2023/01/03 01:37:12;;;;;;;7.18;2.75;;;;;;;9.10;74.84;101043.72;1088018;54;20054;-82
2023/01/03 01:38:16;;;;;;;3.83;2.20;;;;;;;9.11;74.84;101056.09;1087972;54;20046;-82
2023/01/03 01:39:19;;;;;;;4.03;2.08;;;;;;;9.14;74.90;101049.66;1088041;54;20022;-82
2023/01/03 01:40:24;;;;;;;4.20;2.10;;;;;;;9.13;74.66;101055.97;1088108;54;20026;-82
2023/01/03 01:45:25;;;;;;;3.85;2.00;;;;;;;9.26;74.03;101051.47;1088172;54;20054;-82
2023/01/03 01:46:30;;;;;;;4.50;1.98;;;;;;;9.26;73.97;101058.63;1088093;54;20045;-82
2023/01/03 01:47:40;;;;;;;4.65;1.85;;;;;;;9.22;73.89;101060.63;1088065;54;20018;-83
2023/01/03 01:48:41;;;;;;;4.03;1.92;;;;;;;9.16;74.03;101058.41;1088052;54;20046;-82
2023/01/03 01:50:03;;;;;;;3.50;1.67;;;;;;;9.19;74.14;101064.38;1088026;54;20038;-82
2023/01/03 01:51:07;;;;;;;5.65;2.17;;;;;;;9.33;73.64;101059.88;1088019;54;20721;-82
2023/01/03 01:52:13;;;;;;;3.55;1.55;;;;;;;9.43;73.28;101066.25;1087991;54;20039;-82
2023/01/03 01:53:17;;;;;;;3.42;1.80;;;;;;;9.33;73.36;101066.03;1088111;54;20042;-82
2023/01/03 01:54:22;;;;;;;3.78;1.90;;;;;;;9.28;73.54;101062.88;1088002;54;20082;-82
2023/01/03 01:55:26;;;;;;;4.00;2.00;;;;;;;9.27;73.88;101071.84;1087793;54;20041;-80
2023/01/03 01:56:36;;;;;;;3.33;1.67;;;;;;;9.36;73.64;101064.97;1087818;54;20061;-80
2023/01/03 01:57:38;;;;;;;4.40;2.35;;;;;;;9.32;73.46;101068.84;1087749;54;20065;-81
2023/01/03 01:58:48;;;;;;;3.78;1.60;;;;;;;9.40;73.11;101061.13;1087789;54;20034;-81
2023/01/03 01:59:49;;;;;;;3.30;1.80;;;;;;;9.25;73.45;101063.09;1087775;54;20057;-82
2023/01/03 02:00:54;;;;;;;4.22;2.38;;;;;;;9.27;73.82;101070.97;1088826;31;20816;-81
2023/01/03 02:01:55;;;;;;;3.97;2.03;;;;;;;9.27;73.59;101062.97;1088072;54;20038;-80
2023/01/03 02:02:59;;;;;;;3.78;1.90;;;;;;;9.27;73.46;101070.97;1088155;54;20137;-82
2023/01/03 02:04:06;;;;;;;3.60;1.58;;;;;;;9.35;73.42;101064.13;1088480;54;20035;-82
2023/01/03 02:05:12;;;;;;;3.75;1.70;;;;;;;9.44;73.14;101062.63;1088434;54;20035;-82
2023/01/03 02:06:16;;;;;;;3.42;1.85;;;;;;;9.50;73.01;101062.16;1088423;54;20811;-82
2023/01/03 02:07:22;;;;;;;3.63;1.88;;;;;;;9.53;72.63;101066.41;1088393;54;20041;-83
2023/01/03 02:08:25;;;;;;;3.65;1.60;;;;;;;9.62;72.46;101068.41;1088426;54;20990;-82
2023/01/03 02:09:31;;;;;;;3.50;1.48;;;;;;;9.66;72.38;101066.34;1088403;54;20015;-83
2023/01/03 02:10:57;;;;;;;4.03;1.77;;;;;;;9.60;72.03;101072.16;1088369;54;20046;-82
2023/01/03 02:13:39;;;;;;;2.85;1.30;;;;;;;9.55;72.19;101068.94;1088281;54;20030;-82
2023/01/03 02:14:54;;;;;;;3.50;1.30;;;;;;;9.51;72.75;101069.19;1087963;54;20022;-82
2023/01/03 02:16:13;;;;;;;4.20;1.88;;;;;;;9.54;72.25;101069.94;1088072;54;20074;-83
2023/01/03 02:17:24;;;;;;;5.30;2.20;;;;;;;9.58;72.24;101068.72;1087797;54;20027;-85
2023/01/03 02:18:39;;;;;;;;;;;;;;;9.52;72.32;101070.91;1088122;54;20018;-82
2023/01/03 02:20:02;;;;;;;4.28;2.03;;;;;;;9.58;71.97;101074.94;1088362;54;19927;-81
2023/01/03 02:21:43;;;;;;;6.35;2.90;;;;;;;9.64;71.83;101065.59;1088148;54;20058;-80
2023/01/03 02:23:17;;;;;;;9.30;4.85;;;;;;;9.65;71.85;101060.16;1088119;54;20034;-80
2023/01/03 02:24:59;;;;;;;7.20;3.67;;;;;;;9.63;71.67;101055.91;1088150;46;20057;-81
2023/01/03 02:26:30;;;;;;;6.32;3.30;;;;;;;9.66;71.86;101061.00;1087789;54;20972;-79
2023/01/03 02:28:02;;;;;;;10.38;6.40;;;;;;;9.66;71.51;101066.34;1087952;54;20025;-81
2023/01/03 02:29:28;;;;;;;8.50;4.47;;;;;;;9.61;71.40;101065.84;1087871;54;20030;-80
2023/01/03 02:30:39;;;;;;;5.53;3.25;;;;;;;9.58;71.69;101063.41;1094044;46;20034;-80
2023/01/03 02:31:50;;;;;;;6.57;3.08;;;;;;;9.60;71.87;101073.00;1088344;54;20074;-83
2023/01/03 02:32:57;;;;;;;4.18;2.10;;;;;;;9.64;71.80;101070.94;1088500;54;20022;-81
2023/01/03 02:34:07;;;;;;;9.60;5.10;;;;;;;9.62;71.39;101067.56;1088495;54;20041;-81
2023/01/03 02:35:17;;;;;;;5.82;3.03;;;;;;;9.58;71.85;101063.41;1089990;46;20053;-81
2023/01/03 02:36:29;;;;;;;5.25;2.75;;;;;;;9.59;71.83;101067.78;1088276;54;20035;-80
2023/01/03 02:37:38;;;;;;;5.40;2.65;;;;;;;9.60;71.54;101062.31;1092559;46;20030;-82
2023/01/03 02:38:51;;;;;;;4.97;2.35;;;;;;;9.57;71.84;101062.56;1090972;31;20797;-82
2023/01/03 02:40:00;;;;;;;4.30;2.10;;;;;;;9.59;71.90;101059.75;1088890;46;20035;-82
2023/01/03 02:41:19;;;;;;;4.40;2.15;;;;;;;9.55;71.76;101068.94;1087721;54;20034;-80
2023/01/03 02:43:55;;;;;;;3.50;1.65;;;;;;;9.53;71.78;101055.72;1087568;54;20034;-80
2023/01/03 02:45:03;;;;;;;4.47;1.95;;;;;;;9.56;71.71;101057.31;1087639;54;20034;-81
2023/01/03 02:46:14;;;;;;;3.33;1.48;;;;;;;9.57;71.67;101059.03;1087694;54;20039;-80
2023/01/03 02:47:19;;;;;;;3.85;1.55;;;;;;;9.53;71.76;101066.41;1087754;54;20098;-80
2023/01/03 02:48:34;;;;;;;3.40;1.50;;;;;;;9.58;71.85;101063.41;1087576;54;20042;-80
2023/01/03 02:49:40;;;;;;;3.40;1.50;;;;;;;9.48;71.78;101069.41;1087654;54;20053;-80
2023/01/03 02:50:49;;;;;;;3.63;1.50;;;;;;;9.46;71.82;101068.66;1087981;54;20038;-82
2023/01/03 02:51:57;;;;;;;4.47;2.20;;;;;;;9.34;72.25;101067.75;1088084;54;20042;-81
2023/01/03 02:53:04;;;;;;;4.15;2.00;;;;;;;9.28;72.60;101067.34;1089096;46;20035;-80
2023/01/03 02:54:12;;;;;;;4.78;2.10;;;;;;;9.35;72.59;101063.28;1088036;54;21752;-82
2023/01/03 02:55:18;;;;;;;4.38;1.73;;;;;;;9.41;72.48;101061.97;1088012;54;20050;-80
2023/01/03 02:56:26;;;;;;;3.30;1.80;;;;;;;9.49;72.17;101065.78;1087917;54;20932;-81
2023/01/03 02:57:33;;;;;;;3.20;1.60;;;;;;;9.51;71.61;101069.19;1087942;54;20094;-81
2023/01/03 02:58:41;;;;;;;5.32;2.08;;;;;;;9.33;72.08;101075.88;1087702;46;20034;-79
2023/01/03 02:59:46;;;;;;;4.53;2.05;;;;;;;9.33;72.38;101065.22;1087358;54;20046;-78
2023/01/03 03:00:58;;;;;;;3.70;2.00;;;;;;;9.19;72.70;101069.72;1086979;54;20086;-79
2023/01/03 03:02:07;;;;;;;5.55;2.10;;;;;;;9.19;72.75;101069.72;1087210;54;20049;-80
2023/01/03 03:03:13;;;;;;;4.07;2.40;;;;;;;9.11;72.90;101069.41;1087300;54;20102;-79
2023/01/03 03:04:17;;;;;;;4.82;2.13;;;;;;;9.06;73.35;101074.25;1087576;54;20030;-80
2023/01/03 03:05:24;;;;;;;5.25;1.98;;;;;;;8.99;73.57;101072.97;1088519;39;20434;-81
2023/01/03 03:06:35;;;;;;;4.47;2.10;;;;;;;9.04;73.61;101084.16;1087178;54;20042;-80
2023/01/03 03:07:39;;;;;;;4.00;2.00;;;;;;;9.12;72.97;101079.13;1088050;46;20066;-81
2023/01/03 03:08:46;;;;;;;3.35;1.58;;;;;;;9.26;72.64;101075.47;1088164;54;20066;-83
2023/01/03 03:14:59;;;;;;;3.90;1.55;;;;;;;9.33;71.92;101081.22;1087545;54;20094;-77
2023/01/03 03:16:12;;;;;;;3.00;1.30;;;;;;;9.34;72.28;101083.78;1087020;54;20133;-77
2023/01/03 03:17:22;;;;;;;3.63;1.60;;;;;;;9.39;72.03;101085.25;1087201;54;20041;-77
2023/01/03 03:18:34;;;;;;;3.03;1.40;;;;;;;9.42;71.66;101085.88;1087217;54;20031;-76
2023/01/03 03:25:08;;;;;;;2.78;1.23;;;;;;;9.13;72.77;101087.97;1087318;54;20069;-76
2023/01/03 03:26:16;;;;;;;3.20;1.33;;;;;;;9.25;72.39;101083.59;1087193;54;20035;-76
2023/01/03 03:28:44;;;;;;;3.35;1.50;;;;;;;9.34;71.93;101083.78;1087308;54;20030;-77
2023/01/03 03:29:46;;;;;;;3.45;1.50;;;;;;;9.36;71.83;101076.50;1087184;54;20652;-78
2023/01/03 03:30:51;;;;;;;2.97;1.20;;;;;;;9.36;71.86;101086.31;1087344;39;20797;-78
2023/01/03 03:31:57;;;;;;;4.88;1.65;;;;;;;9.32;71.92;101075.00;1086984;54;20034;-78
2023/01/03 03:45:04;;;;;;;3.67;1.63;;;;;;;8.82;73.64;101072.34;1087350;54;20034;-76
2023/01/03 03:46:11;;;;;;;3.40;1.65;;;;;;;8.95;73.17;101074.16;1087396;54;20040;-76
2023/01/03 03:47:34;;;;;;;3.42;1.40;;;;;;;8.99;73.09;101073.81;1087297;54;20069;-76
2023/01/03 03:52:45;;;;;;;2.90;1.30;;;;;;;9.02;72.65;101083.41;1087218;54;20034;-76
2023/01/03 04:07:01;;;;;;;2.95;1.42;;;;;;;8.77;73.20;101093.16;1087152;54;20030;-77
2023/01/03 07:29:12;;;;;;;6.05;2.35;;;;;;;6.96;73.28;101206.88;1087447;54;20030;-82
2023/01/03 07:30:14;;;;;;;4.55;2.47;;;;;;;6.76;73.88;101209.88;1087387;54;20031;-82
2023/01/03 07:31:24;;;;;;;4.45;2.35;;;;;;;6.64;74.66;101212.31;1087517;54;20046;-82
2023/01/03 07:32:26;;;;;;;4.55;2.50;;;;;;;6.51;74.79;101211.34;1087567;54;20018;-82
2023/01/03 07:33:31;;;;;;;5.22;2.67;;;;;;;6.47;74.94;101207.13;1089137;46;20750;-82
2023/01/03 07:34:38;;;;;;;5.53;2.75;;;;;;;6.37;75.84;101210.31;1087591;54;20065;-82
2023/01/03 08:39:07;;;;;;;5.00;3.17;;;;;;;6.92;75.57;101262.97;1086465;54;20049;-82
2023/01/03 08:40:13;;;;;;;8.35;4.75;;;;;;;6.97;75.62;101267.09;1087843;54;20047;-83
2023/01/03 08:41:22;;;;;;;6.40;4.32;;;;;;;7.02;75.73;101265.00;1087919;54;20042;-83
2023/01/03 08:42:28;;;;;;;6.63;3.40;;;;;;;7.05;75.52;101269.25;1087756;54;20035;-81
2023/01/03 08:43:37;;;;;;;6.00;3.67;;;;;;;7.05;75.51;101271.06;1087923;54;20050;-80
2023/01/03 08:44:40;;;;;;;6.00;3.55;;;;;;;7.07;75.43;101277.16;1088320;39;20645;-82
2023/01/03 08:45:49;;;;;;;6.28;3.63;;;;;;;7.12;75.41;101275.94;1087903;54;20038;-82
2023/01/03 08:46:53;;;;;;;5.93;4.10;;;;;;;7.15;75.18;101278.41;1087964;54;20031;-82
2023/01/03 08:48:09;;;;;;;6.97;3.80;;;;;;;7.15;75.46;101270.41;1087862;54;20030;-82
2023/01/03 08:49:15;;;;;;;6.13;3.00;;;;;;;7.18;75.38;101264.06;1087656;54;20041;-82
2023/01/03 08:50:19;;;;;;;4.82;2.97;;;;;;;7.22;75.27;101270.91;1087826;54;20022;-82
2023/01/03 08:51:53;;;;;;;7.65;4.07;;;;;;;7.22;75.42;101265.59;1087820;54;20678;-82
2023/01/03 08:52:55;;;;;;;5.43;3.45;;;;;;;7.26;75.17;101267.13;1087888;54;20050;-81
2023/01/03 08:53:59;;;;;;;5.32;3.38;;;;;;;7.28;75.17;101267.03;1087691;54;20053;-81
2023/01/03 08:55:05;;;;;;;5.15;3.10;;;;;;;7.34;75.06;101270.19;1087662;54;20022;-82
2023/01/03 08:56:10;;;;;;;4.90;3.00;;;;;;;7.39;75.15;101272.56;1087775;54;20031;-83
2023/01/03 08:57:27;;;;;;;5.35;3.20;;;;;;;7.39;74.90;101274.34;1087799;54;20042;-82
2023/01/03 08:58:32;;;;;;;6.53;3.40;;;;;;;7.43;75.02;101275.88;1087955;54;20043;-81
2023/01/03 08:59:34;;;;;;;7.43;3.72;;;;;;;7.38;75.08;101277.94;1090492;39;20574;-80
2023/01/03 09:00:38;;;;;;;5.22;3.60;;;;;;;7.38;75.06;101280.59;1088190;54;20030;-80
2023/01/03 09:01:44;;;;;;;5.68;4.05;;;;;;;7.38;74.96;101269.97;1088134;54;20038;-81
2023/01/03 09:02:46;;;;;;;8.70;4.32;;;;;;;7.39;75.26;101271.69;1088035;54;20045;-81
2023/01/03 09:03:50;;;;;;;5.72;3.50;;;;;;;7.43;75.04;101268.72;1088245;54;20034;-82
2023/01/03 09:04:55;;;;;;;6.05;3.65;;;;;;;7.51;74.80;101270.94;1088120;54;20038;-81
2023/01/03 09:06:02;;;;;;;5.68;3.55;;;;;;;7.54;74.94;101270.75;1087991;54;20038;-82
2023/01/03 09:07:04;;;;;;;6.00;3.47;;;;;;;7.55;74.81;101272.47;1088127;54;20057;-80
2023/01/03 09:08:14;;;;;;;6.40;3.65;;;;;;;7.57;74.82;101275.88;1088068;54;20038;-81
2023/01/03 09:09:16;;;;;;;5.40;3.33;;;;;;;7.61;74.94;101276.53;1088090;54;20042;-82
2023/01/03 09:10:41;;;;;;;6.93;3.75;;;;;;;7.65;74.37;101278.06;1093436;39;20617;-81
2023/01/03 09:11:42;;;;;;;10.32;5.20;;;;;;;7.59;74.75;101284.63;1088482;46;20122;-82
2023/01/03 09:12:47;;;;;;;11.07;6.32;;;;;;;7.60;74.64;101277.50;1088017;54;20038;-81
2023/01/03 09:13:49;;;;;;;9.20;5.18;;;;;;;7.58;74.67;101288.22;1102708;31;20603;-82
2023/01/03 09:14:55;;;;;;;10.23;5.35;;;;;;;7.62;74.72;101295.09;1088072;54;20102;-81
2023/01/03 09:16:31;;;;;;;9.38;5.40;;;;;;;7.57;74.75;101288.34;1088146;54;20030;-81
2023/01/03 09:19:20;;;;;;;9.30;6.03;;;;;;;7.53;75.00;101295.66;1088052;54;20022;-82
2023/01/03 09:22:54;;;;;;;;;;;;;;;7.42;74.77;101293.63;1087951;54;20061;-82
2023/01/03 09:24:10;;;;;;;12.65;6.18;;;;;;;7.40;75.11;101294.69;1087796;54;19951;-81
2023/01/03 09:25:15;;;;;;;10.48;5.97;;;;;;;7.45;74.72;101297.94;1088043;54;20042;-80
2023/01/03 09:26:24;;;;;;;11.13;6.43;;;;;;;7.45;75.06;101303.25;1088109;54;20042;-81
2023/01/03 09:27:28;;;;;;;12.75;6.65;;;;;;;7.44;74.62;101296.22;1088093;54;20035;-81
2023/01/03 09:28:32;;;;;;;15.18;6.50;;;;;;;7.48;74.58;101303.03;1090549;46;20037;-80
2023/01/03 09:29:51;;;;;;;10.70;5.88;;;;;;;7.53;74.79;101295.66;1088704;46;20041;-82
2023/01/03 09:35:50;;;;;;;12.07;6.30;;;;;;;7.46;74.69;101296.97;1082348;54;20084;31
2023/01/03 09:36:55;;;;;;;11.20;5.80;;;;;;;7.51;74.68;101302.88;1090261;46;20040;-85
2023/01/03 10:09:45;;;;;;;12.75;6.75;;;;;;;7.91;72.62;101297.72;1074789;54;20002;31
2023/01/03 10:24:50;;;;;;;11.50;6.10;;;;;;;9.50;68.42;101297.06;1076949;54;21272;31
2023/01/03 10:26:00;;;;;;;9.75;5.60;;;;;;;9.57;68.65;101291.28;1075201;54;21538;31
2023/01/03 10:28:14;;;;;;;8.55;5.82;;;;;;;9.48;68.79;101290.13;1087990;54;19922;-82
2023/01/03 10:29:18;;;;;;;11.27;5.32;;;;;;;9.60;68.63;101291.06;1088028;54;20805;-84
2023/01/03 10:30:35;;;;;;;8.10;5.03;;;;;;;9.69;68.43;101287.75;1088096;54;20031;-83
2023/01/03 10:31:59;;;;;;;13.35;5.55;;;;;;;9.77;66.86;101293.41;1088060;54;20029;-84
2023/01/03 10:33:25;;;;;;;12.07;6.20;;;;;;;9.76;66.58;101288.19;1088038;54;20042;-88
2023/01/03 10:37:41;;;;;;;9.88;6.03;;;;;;;10.02;66.72;101272.91;1089007;54;20014;-85
2023/01/03 10:38:47;;;;;;;13.00;6.50;;;;;;;10.12;67.09;101271.28;1088287;54;20061;-84
2023/01/03 10:40:01;;;;;;;10.07;6.82;;;;;;;10.12;65.71;101273.97;1088237;54;20026;-86
2023/01/03 10:41:06;;;;;;;10.43;6.30;;;;;;;10.29;66.57;101274.56;1088185;54;20040;-84
2023/01/03 10:42:08;;;;;;;10.27;6.25;;;;;;;10.50;66.29;101271.28;1090316;46;20030;-85
2023/01/03 10:43:18;;;;;;;11.23;6.15;;;;;;;10.67;65.25;101264.69;1088386;54;20023;-86
2023/01/03 10:44:27;;;;;;;9.73;5.88;;;;;;;10.95;65.11;101257.22;1088320;54;20058;-86
2023/01/03 10:45:28;;;;;;;8.30;5.70;;;;;;;11.17;64.86;101259.97;1087932;54;20189;-85
2023/01/03 10:46:33;;;;;;;10.35;5.45;;;;;;;11.51;64.51;101253.78;1089320;46;20026;-87
2023/01/03 10:47:35;;;;;;;8.90;4.93;;;;;;;11.67;64.29;101254.28;1087895;54;20040;-85
2023/01/03 10:48:41;;;;;;;9.15;5.40;;;;;;;11.92;63.34;101251.44;1088728;46;20010;-85
2023/01/03 10:49:46;;;;;;;9.30;4.93;;;;;;;12.18;63.23;101254.72;1087860;54;20034;-84
2023/01/03 10:50:49;;;;;;;11.18;5.95;;;;;;;12.43;62.79;101258.88;1087797;54;20026;-85
2023/01/03 10:51:59;;;;;;;9.52;5.18;;;;;;;12.60;61.37;101252.13;1088080;47;20023;-83
2023/01/03 11:19:10;;;;;;;10.15;5.30;;;;;;;11.65;61.10;101253.53;1075034;54;20030;31
2023/01/03 11:25:46;;;;;;;8.63;6.25;;;;;;;10.64;64.17;101256.88;1088194;54;20014;-85
2023/01/03 11:29:41;;;;;;;8.23;4.78;;;;;;;10.46;64.89;101257.28;1099421;39;21070;-86
2023/01/03 11:30:55;;;;;;;6.55;4.53;;;;;;;10.50;64.44;101253.44;1087884;54;20050;-86
2023/01/03 11:33:18;;;;;;;7.38;4.88;;;;;;;10.52;64.40;101247.97;1088197;54;20038;-86
2023/01/03 11:34:39;;;;;;;8.60;4.13;;;;;;;10.58;64.40;101253.72;1088314;54;20018;-85
2023/01/03 11:35:45;;;;;;;;;;;;;;;10.49;65.15;101253.53;1088429;54;20018;-86
2023/01/03 11:36:53;;;;;;;7.32;4.47;;;;;;;10.53;64.71;101253.19;1088283;54;20930;-86
2023/01/03 11:38:09;;;;;;;8.10;4.97;;;;;;;10.57;64.63;101243.16;1088194;54;20058;-86
2023/01/03 11:39:26;;;;;;;9.88;4.70;;;;;;;10.55;64.59;101248.59;1088408;54;20226;-85
2023/01/03 11:40:44;;;;;;;6.10;3.70;;;;;;;10.65;64.10;101250.56;1087867;54;20061;-84
2023/01/03 11:42:24;;;;;;;9.02;4.82;;;;;;;10.55;64.81;101239.72;1087890;54;20049;-85
2023/01/03 11:43:45;;;;;;;7.22;4.20;;;;;;;10.58;64.51;101244.84;1087358;54;20018;-84
2023/01/03 11:45:10;;;;;;;;;;;;;;;10.53;65.11;101241.66;1087663;54;20144;-86
2023/01/03 11:46:36;;;;;;;7.43;3.70;;;;;;;10.64;64.47;101230.13;1087689;54;19942;-85
2023/01/03 11:47:48;;;;;;;5.90;3.92;;;;;;;10.71;64.35;101232.25;1087798;54;20034;-84
2023/01/03 11:49:05;;;;;;;5.68;3.72;;;;;;;10.72;64.42;101225.09;1087586;54;20781;-83
2023/01/03 11:50:23;;;;;;;6.28;3.20;;;;;;;10.82;64.31;101230.56;1087664;54;20035;-87
2023/01/03 11:51:36;;;;;;;6.68;3.78;;;;;;;10.67;64.45;101227.25;1087601;54;20034;-86
2023/01/03 11:52:44;;;;;;;6.40;3.22;;;;;;;10.80;64.59;101227.16;1087614;54;20034;-84
2023/01/03 11:54:00;;;;;;;5.18;3.17;;;;;;;10.87;64.33;101226.56;1087601;54;20879;-85
2023/01/03 11:56:52;;;;;;;6.32;2.85;;;;;;;10.45;65.39;101239.53;1087669;54;20023;-86
2023/01/03 11:58:09;;;;;;;5.53;2.42;;;;;;;10.42;65.55;101224.59;1087908;54;20045;-84
2023/01/03 12:03:02;;;;;;;5.47;2.15;;;;;;;10.50;65.85;101225.84;1087750;54;20030;-84
2023/01/03 12:04:29;;;;;;;4.03;1.83;;;;;;;10.64;65.04;101222.13;1087979;54;20068;-85
2023/01/03 12:05:44;;;;;;;3.55;1.73;;;;;;;10.65;64.98;101218.47;1087958;54;20042;-84
2023/01/03 12:07:04;;;;;;;5.53;2.17;;;;;;;10.54;65.55;101214.78;1087964;54;20046;-84
2023/01/03 12:08:42;;;;;;;3.60;1.63;;;;;;;10.76;64.75;101216.72;1087875;54;20039;-86
2023/01/03 12:09:52;;;;;;;3.67;1.60;;;;;;;10.70;64.96;101214.47;1087722;54;20038;-85
2023/01/03 12:11:01;;;;;;;6.15;1.70;;;;;;;10.81;64.72;101213.69;1087733;54;20034;-84
2023/01/03 12:12:24;;;;;;;5.15;1.48;;;;;;;10.91;64.56;101213.81;1087708;54;20762;-84
2023/01/03 12:13:38;;;;;;;4.47;1.70;;;;;;;10.92;64.67;101211.00;1087632;54;20050;-84
2023/01/03 12:14:48;;;;;;;4.20;1.80;;;;;;;10.70;64.66;101211.81;1087578;54;20038;-84
2023/01/03 12:16:01;;;;;;;3.15;1.50;;;;;;;10.87;64.43;101212.31;1087702;54;20046;-84
2023/01/03 12:17:11;;;;;;;5.32;1.52;;;;;;;10.60;64.83;101211.66;1087654;54;20045;-83